Time;durP1;ratioP1;P1;durP2;ratioP2;P2;SDS_P1;SDS_P2;PMS_P1;PMS_P2;Temp;Humidity;BMP_temperature;BMP_pressure;BME280_temperature;BME280_humidity;BME280_pressure;Samples;Min_cycle;Max_cycle;Signal;HPM_P1;HPM_P2
2022/05/08 00:01:35;;;;;;;;;;;15.50;99.90;;;;;;5085041;28;19908;-82
2022/05/08 00:04:02;;;;;;;;;;;15.50;99.90;;;;;;5103177;28;19904;-82
2022/05/08 00:06:27;;;;;;;;;;;15.40;99.90;;;;;;5084801;28;19919;-82
2022/05/08 00:08:53;;;;;;;;;;;15.50;99.90;;;;;;5103185;28;19923;-82
2022/05/08 00:11:19;;;;;;;;;;;15.40;99.90;;;;;;5102576;28;19904;-82
2022/05/08 00:13:45;;;;;;;;;;;15.40;99.90;;;;;;5102459;28;19958;-82
2022/05/08 00:16:11;;;;;;;;;;;15.30;99.90;;;;;;5102056;28;19916;-82
2022/05/08 00:18:36;;;;;;;;;;;15.40;99.90;;;;;;5102809;28;19908;-82
2022/05/08 00:21:02;;;;;;;;;;;15.40;99.90;;;;;;5084466;28;19904;-82
2022/05/08 00:23:28;;;;;;;;;;;15.40;99.90;;;;;;5084223;28;19904;-82
2022/05/08 00:25:54;;;;;;;;;;;15.40;99.90;;;;;;5101899;28;19975;-82
2022/05/08 00:28:20;;;;;;;;;;;15.30;99.90;;;;;;5103256;28;19912;-82
2022/05/08 00:30:45;;;;;;;;;;;15.30;99.90;;;;;;5101405;28;19984;-82
2022/05/08 00:33:11;;;;;;;;;;;15.20;99.90;;;;;;5101727;28;20134;-82
2022/05/08 00:35:36;;;;;;;;;;;15.30;99.90;;;;;;5084336;28;19916;-82
2022/05/08 00:38:02;;;;;;;;;;;15.30;99.90;;;;;;5102518;28;19911;-82
2022/05/08 00:40:29;;;;;;;;;;;15.20;99.90;;;;;;5084690;28;20229;-82
2022/05/08 00:42:54;;;;;;;;;;;15.30;99.90;;;;;;5102624;28;19950;-82
2022/05/08 00:45:20;;;;;;;;;;;15.20;99.90;;;;;;5101533;28;19912;-82
2022/05/08 00:47:46;;;;;;;;;;;15.10;99.90;;;;;;5102398;28;20096;-82
2022/05/08 00:50:12;;;;;;;;;;;15.10;99.90;;;;;;5102472;28;19990;-82
2022/05/08 00:52:38;;;;;;;;;;;15.10;99.90;;;;;;5102115;28;19908;-82
2022/05/08 00:55:04;;;;;;;;;;;15.10;99.90;;;;;;5084264;28;19904;-82
2022/05/08 00:57:30;;;;;;;;;;;15.00;99.90;;;;;;5102524;28;19915;-82
2022/05/08 00:59:57;;;;;;;;;;;15.00;99.90;;;;;;5102060;28;19936;-82
2022/05/08 01:02:22;;;;;;;;;;;15.00;99.90;;;;;;5101964;28;20193;-82
2022/05/08 01:04:48;;;;;;;;;;;14.90;99.90;;;;;;5101129;28;19911;-82
2022/05/08 01:07:13;;;;;;;;;;;14.90;99.90;;;;;;5102518;28;19908;-82
2022/05/08 01:09:39;;;;;;;;;;;14.90;99.90;;;;;;5101775;28;19908;-81
2022/05/08 01:12:06;;;;;;;;;;;14.90;99.90;;;;;;5101976;28;20207;-82
2022/05/08 01:14:32;;;;;;;;;;;14.90;99.90;;;;;;5101544;28;20073;-82
2022/05/08 01:16:57;;;;;;;;;;;14.80;99.90;;;;;;5101998;28;19919;-82
2022/05/08 01:19:23;;;;;;;;;;;14.80;99.90;;;;;;5102144;28;19908;-82
2022/05/08 01:21:48;;;;;;;;;;;14.80;99.90;;;;;;5101270;28;19908;-83
2022/05/08 01:29:26;;;;;;;;;;;14.80;99.90;;;;;;5101962;22;19956;-83
2022/05/08 01:31:51;;;;;;;;;;;14.70;99.90;;;;;;5039186;28;19932;-83
2022/05/08 01:34:17;;;;;;;;;;;14.80;99.90;;;;;;5041245;28;20096;-81
2022/05/08 01:36:42;;;;;;;;;;;14.60;99.90;;;;;;5040251;28;19988;-81
2022/05/08 01:39:08;;;;;;;;;;;14.60;99.90;;;;;;5039895;28;19948;-82
2022/05/08 01:41:34;;;;;;;;;;;14.60;99.90;;;;;;5041547;28;20191;-81
2022/05/08 01:43:59;;;;;;;;;;;14.60;99.90;;;;;;5041334;28;20062;-81
2022/05/08 01:46:25;;;;;;;;;;;14.60;99.90;;;;;;5039484;28;19967;-81
2022/05/08 01:48:50;;;;;;;;;;;14.60;99.90;;;;;;5024243;28;20088;-81
2022/05/08 01:51:16;;;;;;;;;;;14.50;99.90;;;;;;5042020;28;19905;-81
2022/05/08 01:53:43;;;;;;;;;;;14.50;99.90;;;;;;5041446;28;20181;-81
2022/05/08 01:56:09;;;;;;;;;;;14.50;99.90;;;;;;5041380;28;19959;-82
2022/05/08 01:58:35;;;;;;;;;;;14.50;99.90;;;;;;5041150;28;19905;-84
2022/05/08 02:01:02;;;;;;;;;;;14.50;99.90;;;;;;5040961;28;19909;-84
2022/05/08 02:03:27;;;;;;;;;;;14.40;99.90;;;;;;5041205;28;19905;-84
2022/05/08 02:05:53;;;;;;;;;;;14.40;99.90;;;;;;5041052;28;19911;-84
2022/05/08 02:08:19;;;;;;;;;;;14.30;99.90;;;;;;5041754;28;19952;-84
2022/05/08 02:10:44;;;;;;;;;;;14.40;99.90;;;;;;5024146;28;20096;-81
2022/05/08 02:13:10;;;;;;;;;;;14.40;99.90;;;;;;5040711;28;19947;-81
2022/05/08 02:15:36;;;;;;;;;;;14.40;99.90;;;;;;5040779;28;19913;-82
2022/05/08 02:18:03;;;;;;;;;;;14.30;99.90;;;;;;5041092;28;19906;-82
2022/05/08 02:20:29;;;;;;;;;;;14.40;99.90;;;;;;5040481;28;19905;-82
2022/05/08 02:22:54;;;;;;;;;;;14.40;99.90;;;;;;5041416;28;19911;-81
2022/05/08 02:25:20;;;;;;;;;;;14.40;99.90;;;;;;5041414;28;20100;-82
2022/05/08 02:27:51;;;;;;;;;;;14.40;99.90;;;;;;5040006;28;19987;-82
2022/05/08 02:30:18;;;;;;;;;;;14.30;99.90;;;;;;5041179;28;19905;-82
2022/05/08 02:32:43;;;;;;;;;;;14.30;99.90;;;;;;5040397;28;19987;-81
2022/05/08 02:35:10;;;;;;;;;;;14.30;99.90;;;;;;5040270;28;20189;-82
2022/05/08 02:37:39;;;;;;;;;;;14.30;99.90;;;;;;5040904;28;19909;-81
2022/05/08 02:40:08;;;;;;;;;;;14.30;99.90;;;;;;5041645;28;19905;-81
2022/05/08 02:42:35;;;;;;;;;;;14.30;99.90;;;;;;5041667;28;20070;-82
2022/05/08 02:45:01;;;;;;;;;;;14.30;99.90;;;;;;5023666;28;19909;-81
2022/05/08 02:47:26;;;;;;;;;;;14.20;99.90;;;;;;5042182;28;20081;-82
2022/05/08 02:49:52;;;;;;;;;;;14.10;99.90;;;;;;5045373;28;20157;-82
2022/05/08 02:52:18;;;;;;;;;;;14.10;99.90;;;;;;5045252;28;20262;-82
2022/05/08 02:54:44;;;;;;;;;;;14.10;99.90;;;;;;5044249;28;19972;-82
2022/05/08 02:59:54;;;;;;;;;;;14.20;99.90;;;;;;5044884;28;19951;-81
2022/05/08 03:02:19;;;;;;;;;;;14.10;99.90;;;;;;5026895;28;19935;-81
2022/05/08 03:04:45;;;;;;;;;;;14.10;99.90;;;;;;5045261;28;19905;-82
2022/05/08 03:07:11;;;;;;;;;;;14.10;99.90;;;;;;5044907;28;20215;-81
2022/05/08 03:09:37;;;;;;;;;;;14.10;99.90;;;;;;5044387;28;19916;-81
2022/05/08 03:12:03;;;;;;;;;;;14.10;99.90;;;;;;5044212;28;19905;-82
2022/05/08 03:14:28;;;;;;;;;;;14.10;99.90;;;;;;5042775;28;19913;-81
2022/05/08 03:16:54;;;;;;;;;;;14.10;99.90;;;;;;5042786;28;19913;-81
2022/05/08 03:19:21;;;;;;;;;;;14.00;99.90;;;;;;5044534;28;19943;-81
2022/05/08 03:21:50;;;;;;;;;;;14.00;99.90;;;;;;5044162;28;19990;-81
2022/05/08 03:24:16;;;;;;;;;;;14.00;99.90;;;;;;5044009;28;19906;-81
2022/05/08 03:26:42;;;;;;;;;;;14.00;99.90;;;;;;5042860;28;20254;-81
2022/05/08 03:29:07;;;;;;;;;;;13.90;99.90;;;;;;5043583;28;20298;-81
2022/05/08 03:31:33;;;;;;;;;;;13.90;99.90;;;;;;5044201;28;19927;-82
2022/05/08 03:33:59;;;;;;;;;;;13.90;99.90;;;;;;5044271;28;19943;-82
2022/05/08 03:36:25;;;;;;;;;;;13.90;99.90;;;;;;5044231;28;19917;-82
2022/05/08 03:38:50;;;;;;;;;;;13.90;99.90;;;;;;5043959;28;19960;-81
2022/05/08 03:41:16;;;;;;;;;;;13.90;99.90;;;;;;5043436;28;19912;-81
2022/05/08 03:43:43;;;;;;;;;;;13.80;99.90;;;;;;5043772;28;20119;-81
2022/05/08 03:46:09;;;;;;;;;;;13.80;99.90;;;;;;5043418;28;19972;-82
2022/05/08 03:48:34;;;;;;;;;;;13.80;99.90;;;;;;5043963;28;19912;-81
2022/05/08 03:51:00;;;;;;;;;;;13.80;99.90;;;;;;5043554;28;19976;-81
2022/05/08 03:53:26;;;;;;;;;;;13.70;99.90;;;;;;5043657;28;19905;-81
2022/05/08 03:55:52;;;;;;;;;;;13.70;99.90;;;;;;5043478;28;19919;-81
2022/05/08 03:58:17;;;;;;;;;;;13.70;99.90;;;;;;5043644;28;19913;-81
2022/05/08 04:00:43;;;;;;;;;;;13.80;99.90;;;;;;5025025;28;19917;-81
2022/05/08 04:03:08;;;;;;;;;;;13.70;99.90;;;;;;5044109;28;19940;-81
2022/05/08 04:05:34;;;;;;;;;;;13.70;99.90;;;;;;5043306;28;19912;-81
2022/05/08 04:07:59;;;;;;;;;;;13.60;99.90;;;;;;5026111;28;20195;-81
2022/05/08 04:10:25;;;;;;;;;;;13.60;99.90;;;;;;5042855;28;19909;-81
2022/05/08 04:12:51;;;;;;;;;;;13.60;99.90;;;;;;5043114;28;19905;-81
2022/05/08 04:18:00;;;;;;;;;;;13.60;99.90;;;;;;5043628;28;20219;-81
2022/05/08 04:20:26;;;;;;;;;;;13.60;99.90;;;;;;5043262;28;19905;-81
2022/05/08 04:25:36;;;;;;;;;;;13.50;99.90;;;;;;5042494;28;19999;-81
2022/05/08 04:28:02;;;;;;;;;;;13.60;99.90;;;;;;5042596;28;19917;-82
2022/05/08 04:30:28;;;;;;;;;;;13.50;99.90;;;;;;5042913;28;20081;-84
2022/05/08 04:32:53;;;;;;;;;;;13.50;99.90;;;;;;5041422;28;19921;-84
2022/05/08 04:35:19;;;;;;;;;;;13.50;99.90;;;;;;5042237;28;19910;-84
2022/05/08 04:37:44;;;;;;;;;;;13.40;99.90;;;;;;5043021;28;19916;-84
2022/05/08 04:40:11;;;;;;;;;;;13.50;99.90;;;;;;5042659;28;19912;-84
2022/05/08 04:42:36;;;;;;;;;;;13.40;99.90;;;;;;5040930;28;19905;-84
2022/05/08 04:45:02;;;;;;;;;;;13.40;99.90;;;;;;5042832;28;20219;-84
2022/05/08 04:47:28;;;;;;;;;;;13.40;99.90;;;;;;5042525;28;19929;-84
2022/05/08 04:49:53;;;;;;;;;;;13.40;99.90;;;;;;5042797;28;19912;-84
2022/05/08 04:52:19;;;;;;;;;;;13.40;99.90;;;;;;5042740;28;19909;-84
2022/05/08 04:54:48;;;;;;;;;;;13.40;99.90;;;;;;5042820;28;19912;-83
2022/05/08 04:57:13;;;;;;;;;;;13.40;99.90;;;;;;5042527;28;19920;-83
2022/05/08 04:59:39;;;;;;;;;;;13.40;99.90;;;;;;5037499;28;19909;-83
2022/05/08 05:02:08;;;;;;;;;;;13.40;99.90;;;;;;5025268;28;19988;-83
2022/05/08 05:04:34;;;;;;;;;;;13.40;99.90;;;;;;5020100;28;19988;-83
2022/05/08 05:06:59;;;;;;;;;;;13.40;99.90;;;;;;5020578;28;19909;-84
2022/05/08 05:09:25;;;;;;;;;;;13.40;99.90;;;;;;5019265;28;20402;-84
2022/05/08 05:11:50;;;;;;;;;;;13.40;99.90;;;;;;5019604;28;20404;-84
2022/05/08 05:14:16;;;;;;;;;;;13.40;99.90;;;;;;5003056;28;19945;-84
2022/05/08 05:16:41;;;;;;;;;;;13.40;99.90;;;;;;5021285;28;19994;-84
2022/05/08 05:19:07;;;;;;;;;;;13.40;99.90;;;;;;5019642;28;20004;-84
2022/05/08 05:21:32;;;;;;;;;;;13.40;99.90;;;;;;5020840;28;19968;-85
2022/05/08 05:23:58;;;;;;;;;;;13.40;99.90;;;;;;5020824;28;20000;-84
2022/05/08 05:26:24;;;;;;;;;;;13.40;99.90;;;;;;5019307;28;19917;-84
2022/05/08 05:28:49;;;;;;;;;;;13.40;99.90;;;;;;5019908;28;19921;-84
2022/05/08 05:31:15;;;;;;;;;;;13.40;99.90;;;;;;5002729;28;19910;-84
2022/05/08 05:33:40;;;;;;;;;;;13.50;99.90;;;;;;5013086;28;20265;-84
2022/05/08 05:36:06;;;;;;;;;;;13.50;99.90;;;;;;5030653;28;20058;-84
2022/05/08 05:38:32;;;;;;;;;;;13.60;99.90;;;;;;5030671;28;19954;-85
2022/05/08 05:40:58;;;;;;;;;;;13.60;99.90;;;;;;5030411;28;19940;-85
2022/05/08 05:43:23;;;;;;;;;;;13.70;99.90;;;;;;5030230;28;19910;-84
2022/05/08 05:47:49;;;;;;;;;;;13.80;99.90;;;;;;5030603;28;20281;-85
2022/05/08 05:48:35;;;;;;;;;;;13.80;99.90;;;;;;5030409;28;20391;-86
2022/05/08 05:51:00;;;;;;;;;;;13.90;99.90;;;;;;5012976;28;19913;-84
2022/05/08 05:53:26;;;;;;;;;;;14.00;99.90;;;;;;5030989;28;19915;-84
2022/05/08 05:55:54;;;;;;;;;;;14.10;99.90;;;;;;5030470;28;20208;-84
2022/05/08 05:58:19;;;;;;;;;;;14.10;99.90;;;;;;5030473;28;20397;-84
2022/05/08 06:00:45;;;;;;;;;;;14.20;99.90;;;;;;5030726;28;19909;-84
2022/05/08 06:03:10;;;;;;;;;;;14.30;99.90;;;;;;5030343;28;19925;-85
2022/05/08 06:05:36;;;;;;;;;;;14.40;99.90;;;;;;5030302;28;19910;-84
2022/05/08 06:08:01;;;;;;;;;;;14.50;99.90;;;;;;5030795;28;19910;-85
2022/05/08 06:10:27;;;;;;;;;;;14.50;99.90;;;;;;5030578;28;19936;-84
2022/05/08 06:12:52;;;;;;;;;;;14.50;99.90;;;;;;5030264;28;19952;-84
2022/05/08 06:15:18;;;;;;;;;;;14.60;99.90;;;;;;5030166;28;20004;-85
2022/05/08 06:17:43;;;;;;;;;;;14.60;99.90;;;;;;5030530;28;20019;-84
2022/05/08 06:20:09;;;;;;;;;;;14.70;99.90;;;;;;5013796;28;19967;-84
2022/05/08 06:22:35;;;;;;;;;;;14.80;99.90;;;;;;5011651;28;20321;-85
2022/05/08 06:25:00;;;;;;;;;;;14.90;99.90;;;;;;5014633;28;19952;-84
2022/05/08 06:27:26;;;;;;;;;;;15.00;99.90;;;;;;5014300;28;19913;-84
2022/05/08 06:29:52;;;;;;;;;;;15.00;99.90;;;;;;5014529;28;19924;-84
2022/05/08 06:32:17;;;;;;;;;;;15.10;99.90;;;;;;5014248;28;19914;-84
2022/05/08 06:34:43;;;;;;;;;;;15.20;99.90;;;;;;5014235;28;19963;-84
2022/05/08 06:37:08;;;;;;;;;;;15.30;99.90;;;;;;5014134;28;20046;-84
2022/05/08 06:39:34;;;;;;;;;;;15.30;99.90;;;;;;5014236;28;20443;-84
2022/05/08 06:42:00;;;;;;;;;;;15.40;99.90;;;;;;5014168;28;19996;-84
2022/05/08 06:44:25;;;;;;;;;;;15.50;99.90;;;;;;5014230;28;20008;-85
2022/05/08 06:46:51;;;;;;;;;;;15.60;99.90;;;;;;5014125;28;20293;-85
2022/05/08 06:49:16;;;;;;;;;;;15.70;99.90;;;;;;5015890;28;19909;-82
2022/05/08 06:51:44;;;;;;;;;;;15.70;99.90;;;;;;5013403;28;19917;-81
2022/05/08 06:54:10;;;;;;;;;;;15.70;99.90;;;;;;5011764;28;19913;-81
2022/05/08 06:56:36;;;;;;;;;;;15.80;99.90;;;;;;4995226;28;20449;-82
2022/05/08 07:01:47;;;;;;;;;;;15.90;99.90;;;;;;5013397;28;19916;-82
2022/05/08 07:04:12;;;;;;;;;;;16.10;99.90;;;;;;4995710;28;19909;-82
2022/05/08 07:06:38;;;;;;;;;;;16.20;99.90;;;;;;4995836;28;20401;-81
2022/05/08 07:09:04;;;;;;;;;;;16.20;99.90;;;;;;5013683;28;20007;-82
2022/05/08 07:11:33;;;;;;;;;;;16.30;99.90;;;;;;5013402;28;19952;-82
2022/05/08 07:13:58;;;;;;;;;;;16.40;99.90;;;;;;5013505;28;20500;-82
2022/05/08 07:16:24;;;;;;;;;;;16.50;99.90;;;;;;5013282;28;19925;-82
2022/05/08 07:18:50;;;;;;;;;;;16.60;99.90;;;;;;5013364;28;19972;-82
2022/05/08 07:21:15;;;;;;;;;;;16.60;99.90;;;;;;5013270;28;20464;-82
2022/05/08 07:23:41;;;;;;;;;;;16.70;99.90;;;;;;5013390;28;19913;-82
2022/05/08 07:26:06;;;;;;;;;;;16.80;99.90;;;;;;5013171;28;19983;-82
2022/05/08 07:28:32;;;;;;;;;;;16.80;99.90;;;;;;5013129;28;20308;-82
2022/05/08 07:30:58;;;;;;;;;;;17.00;99.90;;;;;;5013202;28;20280;-82
2022/05/08 07:33:24;;;;;;;;;;;17.10;99.90;;;;;;5012987;28;20351;-82
2022/05/08 07:38:33;;;;;;;;;;;17.20;99.90;;;;;;5013157;28;19923;-82
2022/05/08 07:40:59;;;;;;;;;;;17.30;99.90;;;;;;5012925;28;19913;-82
2022/05/08 07:43:25;;;;;;;;;;;17.40;99.90;;;;;;5012889;28;19916;-82
2022/05/08 07:45:51;;;;;;;;;;;17.50;99.90;;;;;;5012927;28;19953;-82
2022/05/08 07:48:17;;;;;;;;;;;17.70;99.90;;;;;;5012877;28;20423;-82
2022/05/08 07:50:43;;;;;;;;;;;17.70;99.90;;;;;;5012831;28;20428;-82
2022/05/08 07:53:08;;;;;;;;;;;17.80;99.90;;;;;;4995154;28;19910;-84
2022/05/08 07:55:34;;;;;;;;;;;17.90;99.90;;;;;;5012435;28;20027;-84
2022/05/08 07:57:59;;;;;;;;;;;18.00;99.90;;;;;;5012495;28;19913;-85
2022/05/08 08:00:25;;;;;;;;;;;18.10;99.90;;;;;;5012398;28;19916;-85
2022/05/08 08:02:50;;;;;;;;;;;18.20;99.90;;;;;;5012480;28;19956;-84
2022/05/08 08:05:16;;;;;;;;;;;18.20;99.90;;;;;;4994911;28;19913;-84
2022/05/08 08:07:42;;;;;;;;;;;18.20;99.90;;;;;;5011251;28;20536;-84
2022/05/08 08:10:07;;;;;;;;;;;18.30;99.90;;;;;;5012376;28;20000;-82
2022/05/08 08:12:33;;;;;;;;;;;18.40;99.90;;;;;;5012428;28;20016;-82
2022/05/08 08:14:59;;;;;;;;;;;18.40;99.90;;;;;;5012356;28;19956;-82
2022/05/08 08:17:26;;;;;;;;;;;18.50;99.90;;;;;;5012523;28;19918;-82
2022/05/08 08:19:51;;;;;;;;;;;18.70;99.90;;;;;;5012203;28;20322;-82
2022/05/08 08:22:17;;;;;;;;;;;18.80;99.90;;;;;;5012110;28;19910;-82
2022/05/08 08:24:42;;;;;;;;;;;18.90;99.90;;;;;;5010932;28;20361;-83
2022/05/08 08:27:08;;;;;;;;;;;19.00;99.90;;;;;;5012166;28;19963;-82
2022/05/08 08:29:34;;;;;;;;;;;19.10;99.90;;;;;;5012184;28;19921;-82
2022/05/08 08:31:59;;;;;;;;;;;19.30;99.90;;;;;;5011956;28;19956;-82
2022/05/08 08:34:26;;;;;;;;;;;19.50;99.90;;;;;;5012035;28;20289;-82
2022/05/08 08:36:52;;;;;;;;;;;19.60;99.90;;;;;;5011914;28;19918;-82
2022/05/08 08:39:17;;;;;;;;;;;19.80;99.90;;;;;;5011823;28;20289;-82
2022/05/08 08:41:47;;;;;;;;;;;20.00;99.90;;;;;;5011547;28;19909;-82
2022/05/08 08:49:43;;;;;;;;;;;20.50;99.90;;;;;;5011958;28;20055;-84
2022/05/08 08:52:09;;;;;;;;;;;20.80;99.90;;;;;;5012234;28;19910;-84
2022/05/08 08:54:34;;;;;;;;;;;20.90;99.90;;;;;;5011589;28;19936;-84
2022/05/08 08:57:00;;;;;;;;;;;21.00;99.90;;;;;;5011436;28;19918;-84
2022/05/08 08:59:25;;;;;;;;;;;21.10;99.90;;;;;;4993821;28;19909;-84
2022/05/08 09:01:51;;;;;;;;;;;21.20;99.90;;;;;;5011427;28;19922;-84
2022/05/08 09:04:18;;;;;;;;;;;21.30;99.90;;;;;;5011654;28;19956;-84
2022/05/08 09:06:44;;;;;;;;;;;21.50;99.90;;;;;;5011371;28;19909;-84
2022/05/08 09:09:23;;;;;;;;;;;21.50;99.90;;;;;;5011417;28;19909;-84
2022/05/08 09:11:49;;;;;;;;;;;21.70;99.90;;;;;;5011224;28;19909;-84
2022/05/08 09:14:29;;;;;;;;;;;21.80;99.90;;;;;;5011282;28;19916;-84
2022/05/08 09:16:55;;;;;;;;;;;21.80;99.90;;;;;;5011115;28;19917;-84
2022/05/08 09:19:37;;;;;;;;;;;21.90;99.90;;;;;;5011209;28;20268;-84
2022/05/08 09:22:07;;;;;;;;;;;22.00;99.80;;;;;;5011005;28;19909;-84
2022/05/08 09:24:33;;;;;;;;;;;22.00;99.60;;;;;;5010971;28;19909;-84
2022/05/08 09:27:08;;;;;;;;;;;22.20;99.30;;;;;;5011002;28;19916;-84
2022/05/08 09:29:34;;;;;;;;;;;22.20;98.70;;;;;;4993243;28;19922;-84
2022/05/08 09:31:59;;;;;;;;;;;22.20;99.10;;;;;;4993331;28;19921;-84
2022/05/08 09:34:25;;;;;;;;;;;22.30;99.20;;;;;;4993441;28;19910;-85
2022/05/08 09:37:11;;;;;;;;;;;22.30;98.90;;;;;;5010777;28;20378;-84
2022/05/08 09:39:36;;;;;;;;;;;22.30;99.00;;;;;;5010286;28;19962;-84
2022/05/08 09:42:03;;;;;;;;;;;22.30;98.80;;;;;;5010525;28;19918;-84
2022/05/08 09:44:28;;;;;;;;;;;22.40;98.70;;;;;;5010688;28;20066;-84
2022/05/08 09:46:57;;;;;;;;;;;22.40;98.50;;;;;;5010886;28;20437;-84
2022/05/08 09:49:24;;;;;;;;;;;22.40;98.70;;;;;;5010875;28;19909;-84
2022/05/08 09:51:49;;;;;;;;;;;22.40;98.80;;;;;;5010959;28;20376;-84
2022/05/08 09:54:17;;;;;;;;;;;22.40;98.70;;;;;;5010807;28;19909;-84
2022/05/08 09:56:44;;;;;;;;;;;22.50;98.90;;;;;;4993000;28;19917;-85
2022/05/08 09:59:14;;;;;;;;;;;22.50;98.60;;;;;;4996720;28;19910;-84
2022/05/08 10:01:41;;;;;;;;;;;22.60;98.30;;;;;;4996995;28;19913;-84
2022/05/08 10:04:06;;;;;;;;;;;22.60;97.90;;;;;;5014543;28;19909;-85
2022/05/08 10:06:36;;;;;;;;;;;22.60;98.40;;;;;;5014903;28;19910;-84
2022/05/08 10:14:33;;;;;;;;;;;22.90;97.70;;;;;;5014505;28;19920;-84
2022/05/08 10:17:08;;;;;;;;;;;23.00;97.40;;;;;;5014346;28;20360;-85
2022/05/08 10:19:33;;;;;;;;;;;23.00;97.40;;;;;;5014401;28;19957;-84
2022/05/08 10:22:00;;;;;;;;;;;23.00;98.30;;;;;;5014342;28;19914;-84
2022/05/08 10:24:30;;;;;;;;;;;23.10;97.70;;;;;;5014329;28;20014;-85
2022/05/08 10:27:15;;;;;;;;;;;23.30;95.90;;;;;;5014058;28;19909;-84
2022/05/08 10:29:41;;;;;;;;;;;23.50;97.00;;;;;;5014090;28;20444;-83
2022/05/08 10:32:09;;;;;;;;;;;23.70;96.10;;;;;;5014421;28;19940;-85
2022/05/08 10:34:35;;;;;;;;;;;23.80;95.40;;;;;;5014234;28;20341;-84
2022/05/08 10:37:11;;;;;;;;;;;24.00;95.80;;;;;;5013958;28;20005;-84
2022/05/08 10:39:46;;;;;;;;;;;24.20;95.40;;;;;;5013932;28;19910;-84
2022/05/08 10:42:24;;;;;;;;;;;24.50;94.90;;;;;;5013832;28;19916;-84
2022/05/08 10:44:50;;;;;;;;;;;24.80;94.20;;;;;;4996279;28;20004;-85
2022/05/08 10:47:36;;;;;;;;;;;24.90;93.30;;;;;;5013819;28;19910;-84
2022/05/08 10:50:02;;;;;;;;;;;24.80;92.40;;;;;;5013920;28;19964;-84
2022/05/08 10:52:30;;;;;;;;;;;25.00;92.50;;;;;;5013875;28;19953;-84
2022/05/08 10:54:56;;;;;;;;;;;25.00;93.10;;;;;;5013727;28;20361;-84
2022/05/08 10:57:31;;;;;;;;;;;25.10;93.60;;;;;;4996058;28;19960;-84
2022/05/08 10:59:57;;;;;;;;;;;25.10;93.10;;;;;;4995984;28;19975;-85
2022/05/08 11:02:42;;;;;;;;;;;25.30;93.10;;;;;;5013623;28;20369;-83
2022/05/08 11:05:08;;;;;;;;;;;25.40;92.30;;;;;;5013365;28;19921;-83
2022/05/08 11:07:37;;;;;;;;;;;25.40;92.80;;;;;;5013467;28;19909;-83
2022/05/08 11:10:02;;;;;;;;;;;25.40;92.70;;;;;;5013020;28;20431;-84
2022/05/08 11:12:28;;;;;;;;;;;25.20;92.70;;;;;;5013718;28;20000;-83
2022/05/08 11:15:07;;;;;;;;;;;25.10;92.90;;;;;;5013460;28;19909;-84
2022/05/08 11:17:32;;;;;;;;;;;25.10;92.70;;;;;;5013439;28;20336;-84
2022/05/08 11:19:58;;;;;;;;;;;25.10;92.80;;;;;;5013472;28;19956;-84
2022/05/08 11:22:23;;;;;;;;;;;25.10;92.40;;;;;;5013491;28;19916;-83
2022/05/08 11:24:49;;;;;;;;;;;25.20;92.30;;;;;;4995385;28;19994;-83
2022/05/08 11:27:15;;;;;;;;;;;25.40;92.50;;;;;;5012879;28;19916;-83
2022/05/08 11:29:50;;;;;;;;;;;25.60;92.40;;;;;;5012889;28;19928;-83
2022/05/08 11:38:00;;;;;;;;;;;25.70;90.90;;;;;;5012932;28;20340;-84
2022/05/08 11:40:29;;;;;;;;;;;25.80;91.10;;;;;;5012830;28;19917;-84
2022/05/08 11:42:55;;;;;;;;;;;26.00;92.50;;;;;;5012775;28;19913;-84
2022/05/08 11:45:21;;;;;;;;;;;26.20;92.00;;;;;;5012725;28;20111;-84
2022/05/08 11:47:53;;;;;;;;;;;26.10;91.90;;;;;;5012769;28;20582;-84
2022/05/08 11:50:19;;;;;;;;;;;25.90;92.00;;;;;;5012643;28;20329;-84
2022/05/08 11:52:45;;;;;;;;;;;25.90;92.30;;;;;;5012708;28;19910;-84
2022/05/08 11:55:10;;;;;;;;;;;26.00;93.10;;;;;;5012517;28;19944;-84
2022/05/08 11:57:46;;;;;;;;;;;26.40;92.20;;;;;;5012689;28;19917;-83
2022/05/08 12:00:12;;;;;;;;;;;26.70;91.90;;;;;;5012680;28;20520;-84
2022/05/08 12:02:39;;;;;;;;;;;26.90;90.70;;;;;;5012505;28;19972;-83
2022/05/08 12:05:05;;;;;;;;;;;26.10;90.10;;;;;;5012508;28;19914;-83
2022/05/08 12:07:38;;;;;;;;;;;25.80;90.40;;;;;;5012636;28;20105;-84
2022/05/08 12:10:03;;;;;;;;;;;25.80;90.90;;;;;;5012297;28;19916;-84
2022/05/08 12:12:29;;;;;;;;;;;25.80;90.90;;;;;;5012219;28;19914;-83
2022/05/08 12:15:15;;;;;;;;;;;25.90;90.60;;;;;;5012594;28;19909;-83
2022/05/08 12:17:44;;;;;;;;;;;25.80;90.40;;;;;;5001818;28;20043;-84
2022/05/08 12:20:11;;;;;;;;;;;25.90;91.10;;;;;;5011650;28;20186;-83
2022/05/08 12:22:36;;;;;;;;;;;26.00;89.20;;;;;;5012292;28;20321;-83
2022/05/08 12:25:03;;;;;;;;;;;26.10;90.00;;;;;;5011914;28;19920;-83
2022/05/08 12:27:29;;;;;;;;;;;26.50;89.80;;;;;;5012063;28;20009;-83
2022/05/08 12:29:54;;;;;;;;;;;26.90;89.70;;;;;;5012138;28;20024;-83
2022/05/08 12:32:20;;;;;;;;;;;27.10;88.00;;;;;;5011906;28;19917;-83
2022/05/08 12:34:46;;;;;;;;;;;27.00;87.40;;;;;;5012258;28;20304;-84
2022/05/08 12:37:13;;;;;;;;;;;26.80;87.80;;;;;;5011949;28;19921;-84
2022/05/08 12:39:39;;;;;;;;;;;26.50;88.70;;;;;;5012193;28;19909;-84
2022/05/08 12:42:05;;;;;;;;;;;26.10;87.20;;;;;;5011819;28;20388;-84
2022/05/08 12:44:31;;;;;;;;;;;26.00;89.90;;;;;;5011804;28;19971;-84
2022/05/08 12:46:57;;;;;;;;;;;26.40;88.60;;;;;;5011848;28;20369;-84
2022/05/08 12:49:23;;;;;;;;;;;26.90;87.80;;;;;;5011828;28;20404;-83
2022/05/08 12:51:48;;;;;;;;;;;27.10;87.50;;;;;;5011746;28;20000;-84
2022/05/08 12:54:14;;;;;;;;;;;27.00;86.40;;;;;;5011912;28;19948;-83
2022/05/08 12:56:40;;;;;;;;;;;26.80;86.80;;;;;;5011405;28;20194;-84
2022/05/08 13:01:49;;;;;;;;;;;26.40;89.70;;;;;;5011919;28;19991;-83
2022/05/08 13:04:15;;;;;;;;;;;26.40;90.00;;;;;;5011802;28;19953;-83
2022/05/08 13:06:41;;;;;;;;;;;26.60;90.30;;;;;;5011681;28;19953;-83
2022/05/08 13:09:07;;;;;;;;;;;26.50;90.60;;;;;;5011671;28;19956;-83
2022/05/08 13:11:35;;;;;;;;;;;26.30;90.10;;;;;;5010263;28;20483;-83
2022/05/08 13:14:00;;;;;;;;;;;26.30;88.40;;;;;;5011423;28;19917;-83
2022/05/08 13:16:26;;;;;;;;;;;26.10;89.00;;;;;;5011151;28;19917;-83
2022/05/08 13:18:51;;;;;;;;;;;25.80;87.30;;;;;;5011400;28;19921;-83
2022/05/08 13:21:17;;;;;;;;;;;25.40;92.10;;;;;;5011730;28;19944;-83
2022/05/08 13:23:43;;;;;;;;;;;24.70;93.40;;;;;;5011260;28;19964;-84
2022/05/08 13:26:08;;;;;;;;;;;24.30;93.90;;;;;;5010824;28;20397;-83
2022/05/08 13:28:34;;;;;;;;;;;24.10;94.40;;;;;;5010796;28;19921;-83
2022/05/08 13:31:00;;;;;;;;;;;24.00;94.80;;;;;;5010972;28;20000;-84
2022/05/08 13:33:26;;;;;;;;;;;24.70;94.50;;;;;;5010872;28;20395;-83
2022/05/08 13:35:53;;;;;;;;;;;26.00;93.80;;;;;;5011049;28;19917;-84
2022/05/08 13:38:20;;;;;;;;;;;26.90;92.30;;;;;;5011067;28;19914;-83
2022/05/08 13:40:49;;;;;;;;;;;26.40;92.00;;;;;;5010892;28;19932;-83
2022/05/08 13:43:15;;;;;;;;;;;25.80;92.40;;;;;;5011140;28;20000;-83
2022/05/08 13:45:41;;;;;;;;;;;25.00;93.10;;;;;;5010975;28;19916;-83
2022/05/08 13:48:07;;;;;;;;;;;24.50;93.50;;;;;;5010859;28;20008;-83
2022/05/08 13:50:32;;;;;;;;;;;24.20;94.30;;;;;;4992971;28;19909;-82
2022/05/08 13:52:58;;;;;;;;;;;24.80;93.40;;;;;;5010803;28;19909;-83
2022/05/08 13:55:24;;;;;;;;;;;25.80;92.70;;;;;;5010546;28;20385;-82
2022/05/08 13:57:54;;;;;;;;;;;27.40;91.10;;;;;;5010644;28;19963;-83
2022/05/08 14:00:21;;;;;;;;;;;29.00;89.20;;;;;;5010842;28;19913;-85
2022/05/08 14:02:47;;;;;;;;;;;29.60;88.00;;;;;;5010904;28;19921;-85
2022/05/08 14:05:12;;;;;;;;;;;30.30;88.30;;;;;;5010818;28;19909;-85
2022/05/08 14:07:38;;;;;;;;;;;31.20;86.40;;;;;;5010970;28;19916;-85
2022/05/08 14:10:04;;;;;;;;;;;31.70;85.60;;;;;;5010280;28;19910;-86
2022/05/08 14:12:30;;;;;;;;;;;30.10;86.00;;;;;;5010462;28;19964;-86
2022/05/08 14:14:56;;;;;;;;;;;28.30;87.60;;;;;;5010475;28;20346;-85
2022/05/08 14:17:21;;;;;;;;;;;26.80;90.30;;;;;;5010662;28;19972;-85
2022/05/08 14:19:47;;;;;;;;;;;25.80;90.00;;;;;;5010699;28;20004;-85
2022/05/08 14:22:13;;;;;;;;;;;25.00;91.30;;;;;;5010534;28;19910;-85
2022/05/08 14:24:40;;;;;;;;;;;24.50;92.10;;;;;;5010390;28;19956;-85
2022/05/08 14:27:08;;;;;;;;;;;24.10;92.50;;;;;;5010462;28;19964;-83
2022/05/08 14:29:34;;;;;;;;;;;23.80;95.60;;;;;;5010170;28;19921;-83
2022/05/08 14:37:28;;;;;;;;;;;23.00;98.90;;;;;;5010292;28;19925;-83
2022/05/08 14:39:54;;;;;;;;;;;23.20;99.50;;;;;;5010310;28;20226;-83
2022/05/08 14:42:20;;;;;;;;;;;23.40;99.70;;;;;;5011038;28;19909;-83
2022/05/08 14:44:46;;;;;;;;;;;23.40;99.90;;;;;;5011833;28;19921;-83
2022/05/08 14:47:13;;;;;;;;;;;23.30;99.80;;;;;;5014048;28;20065;-83
2022/05/08 14:49:39;;;;;;;;;;;23.00;99.90;;;;;;5013994;28;20382;-83
2022/05/08 14:52:05;;;;;;;;;;;22.80;99.90;;;;;;5013974;28;19944;-83
2022/05/08 14:54:30;;;;;;;;;;;22.70;99.90;;;;;;4996617;28;20000;-82
2022/05/08 14:56:56;;;;;;;;;;;22.60;99.90;;;;;;4996040;28;19918;-82